Latest Weather Observations for Braidwood

IDN60801

Issued at 11:33 am EST Wednesday 28 September 2016 (issued every 30 minutes, with the page automatically refreshed every 10 minutes)

About weather observations | Map of weather stations | Latest weather observations for NSW | Other Formats
Station Details ID: 069132 Name: BRAIDWOOD RACECOURSE AWS Lat: -35.43 Lon: 149.78 Height: 665.2 m
Data from the previous 72 hours. | See also: Recent months at Braidwood
Date/Time
EST
Temp
°C
App
Temp
°C
Dew
Point
°C
Rel
Hum
%
Delta-T
°C
Wind Press
QNH
hPa
Press
MSL
hPa
Rain since
9am
mm
Dir  Spd
km/h
Gust
km/h
Spd
kts
Gust
kts
28/11:30am 13.9 11.1 1.9 44 5.4 NE 6 9 3 5 1013.1 1012.9 0.0
28/11:00am 13.2 10.0 0.6 42 5.5 NE 7 15 4 8 1013.3 1013.2 0.0
28/10:30am 12.9 10.4 3.6 53 4.3 NE 6 9 3 5 1013.7 1013.6 0.0
28/10:00am 11.7 9.0 2.5 53 4.1 NE 6 9 3 5 1013.9 1013.8 0.0
28/09:30am 10.9 8.8 3.7 61 3.3 NNW 4 9 2 5 1014.4 1014.2 0.0
28/09:00am 9.1 6.9 3.3 67 2.6 NNW 4 7 2 4 1014.5 1014.3 0.0
28/08:30am 7.4 4.7 2.9 73 2.0 NNW 6 9 3 5 1014.8 1014.7 0.0
28/08:00am 6.2 3.8 2.3 76 1.7 N 4 6 2 3 1014.7 1014.6 0.0
28/07:30am 5.1 3.6 2.8 85 1.0 CALM 0 4 0 2 1014.6 1014.5 0.0
28/07:00am 2.3 0.4 0.7 89 0.6 CALM 0 0 0 0 1014.4 1014.2 0.0
28/06:30am 0.5 -1.5 -0.2 95 0.3 CALM 0 0 0 0 1014.2 1014.0 0.0
28/06:00am -0.9 -3.1 -1.6 95 0.2 CALM 0 4 0 2 1013.9 1013.8 0.0
28/05:30am -1.3 -3.6 -2.1 94 0.2 CALM 0 0 0 0 1013.6 1013.5 0.0
28/05:00am -0.9 -3.1 -1.7 94 0.2 CALM 0 0 0 0 1013.4 1013.3 0.0
28/04:30am -0.6 -2.8 -1.6 93 0.3 CALM 0 0 0 0 1013.4 1013.3 0.0
28/04:00am -0.1 -2.2 -0.9 94 0.3 CALM 0 0 0 0 1013.2 1013.0 0.0
28/03:30am 0.8 -1.2 -0.2 93 0.4 CALM 0 0 0 0 1013.0 1012.8 0.0
28/03:00am 0.7 -1.3 -0.2 94 0.3 CALM 0 0 0 0 1013.0 1012.8 0.0
28/02:30am 0.1 -2.0 -0.9 93 0.4 CALM 0 0 0 0 1012.8 1012.6 0.0
28/02:00am 0.2 -1.9 -0.8 93 0.4 CALM 0 0 0 0 1013.0 1012.8 0.0
28/01:30am 0.7 -1.3 -0.4 92 0.4 CALM 0 0 0 0 1013.0 1012.8 0.0
28/01:00am 0.7 -1.4 -0.9 89 0.6 CALM 0 0 0 0 1013.1 1012.9 0.0
28/12:30am 1.4 -0.7 -0.7 86 0.8 CALM 0 0 0 0 1013.1 1012.9 0.0
28/12:00am 2.4 0.3 -0.7 80 1.2 CALM 0 0 0 0 1013.2 1013.0 0.0
 
Date/Time
EST
Temp
°C
App
Temp
°C
Dew
Point
°C
Rel
Hum
%
Delta-T
°C
Wind Press
QNH
hPa
Press
MSL
hPa
Rain since
9am
mm
Dir  Spd
km/h
Gust
km/h
Spd
kts
Gust
kts
27/11:30pm 5.3 2.2 1.4 76 1.6 WNW 7 11 4 6 1013.1 1012.9 0.0
27/11:00pm 5.6 2.0 0.8 71 2.0 W 9 15 5 8 1012.9 1012.7 0.0
27/10:30pm 5.1 1.8 0.3 71 1.9 W 7 11 4 6 1013.1 1012.9 0.0
27/10:00pm 6.0 2.4 0.6 68 2.2 W 9 13 5 7 1013.1 1012.9 0.0
27/09:30pm 5.5 2.2 0.3 69 2.1 WNW 7 9 4 5 1013.0 1012.8 0.0
27/09:00pm 5.5 2.8 0.5 70 2.0 N 4 6 2 3 1012.8 1012.6 0.0
27/08:30pm 6.0 2.4 0.3 67 2.3 WNW 9 11 5 6 1012.4 1012.3 0.0
27/08:00pm 5.7 3.8 0.7 70 2.0 CALM 0 2 0 1 1012.3 1012.2 0.0
27/07:30pm 6.6 4.0 1.1 68 2.3 NW 4 7 2 4 1012.2 1012.1 0.0
27/07:00pm 6.0 3.3 0.3 67 2.3 WSW 4 6 2 3 1011.7 1011.5 0.0
27/06:30pm 7.2 4.1 0.0 60 2.9 WSW 6 7 3 4 1011.3 1011.1 0.0
27/06:00pm 9.8 6.4 -0.4 49 4.2 WSW 7 11 4 6 1010.7 1010.6 0.0
27/05:30pm 11.7 6.4 -0.8 42 5.2 WSW 17 24 9 13 1010.3 1010.1 0.0
27/05:00pm 12.4 7.5 -0.5 41 5.5 WSW 15 20 8 11 1009.9 1009.7 0.0
27/04:30pm 11.9 7.3 -1.3 40 5.5 WSW 13 19 7 10 1009.5 1009.3 0.0
27/04:00pm 13.1 8.1 -0.9 38 5.9 W 15 26 8 14 1008.8 1008.6 0.0
27/03:30pm 12.9 6.8 -2.2 35 6.2 W 20 33 11 18 1008.6 1008.4 0.0
27/03:00pm 13.5 7.1 -1.6 35 6.3 WSW 22 35 12 19 1008.4 1008.2 0.0
27/02:30pm 12.8 6.1 -1.1 38 5.8 W 24 37 13 20 1008.1 1007.8 0.0
27/02:00pm 12.7 6.1 -3.1 33 6.4 WSW 22 37 12 20 1008.0 1007.7 0.0
27/01:30pm 13.4 7.6 0.1 40 5.8 WSW 20 37 11 20 1008.0 1007.7 0.0
27/01:00pm 12.3 5.4 -2.7 35 6.1 W 24 37 13 20 1007.8 1007.5 0.0
27/12:30pm 11.8 5.3 -2.4 37 5.7 W 22 35 12 19 1007.9 1007.6 0.0
27/12:00pm 12.4 5.6 0.8 45 5.1 WNW 26 43 14 23 1007.6 1007.4 0.0
27/11:30am 12.2 5.3 0.3 44 5.1 W 26 44 14 24 1007.6 1007.4 0.0
27/11:15am 11.5 4.2 0.3 46 4.8 WNW 28 50 15 27 1007.5 1007.3 0.0
27/11:00am 11.8 5.3 0.0 44 5.0 WNW 24 44 13 24 1007.5 1007.3 0.0
27/10:30am 11.5 3.9 0.6 47 4.7 WNW 30 43 16 23 1007.4 1007.2 0.0
27/10:00am 11.4 5.5 1.9 52 4.2 WNW 22 32 12 17 1007.6 1007.4 0.0
27/09:30am 10.6 4.4 2.4 57 3.6 WNW 24 33 13 18 1007.9 1007.6 0.0
27/09:00am 10.0 4.7 3.1 62 3.1 WNW 20 33 11 18 1008.4 1008.2 0.0
27/08:30am 8.7 5.0 4.7 76 1.8 NNW 13 30 7 16 1008.2 1008.0 0.0
27/08:00am 7.9 4.6 4.7 80 1.5 N 11 28 6 15 1008.1 1007.8 0.0
27/07:30am 7.3 4.7 4.3 81 1.4 N 7 19 4 10 1008.0 1007.7 0.0
27/07:00am 6.8 4.4 4.5 85 1.0 NNE 6 13 3 7 1007.9 1007.6 0.0
27/06:30am 6.2 4.2 4.2 87 0.9 N 4 7 2 4 1008.3 1008.1 0.0
27/06:00am 5.9 3.8 3.7 86 1.0 NNE 4 9 2 5 1008.5 1008.3 0.0
27/05:30am 6.2 3.1 3.7 84 1.1 NW 9 19 5 10 1008.6 1008.4 0.0
27/05:00am 6.6 3.0 2.9 77 1.6 NW 11 20 6 11 1009.0 1008.8 0.0
27/04:30am 7.0 3.4 2.7 74 1.9 NW 11 19 6 10 1009.4 1009.1 0.0
27/04:00am 5.7 2.8 2.5 80 1.4 N 7 11 4 6 1009.5 1009.3 0.0
27/03:30am 5.5 3.2 2.7 82 1.2 NNE 4 9 2 5 1009.6 1009.4 0.0
27/03:00am 5.6 3.6 2.3 79 1.4 NNW 2 6 1 3 1010.0 1009.8 0.0
27/02:30am 5.7 3.3 2.0 77 1.6 N 4 9 2 5 1010.2 1010.0 0.0
27/02:00am 5.8 3.7 1.5 74 1.8 N 2 11 1 6 1010.6 1010.4 0.0
27/01:30am 7.3 2.9 2.8 73 2.0 WNW 15 24 8 13 1011.3 1011.1 0.0
27/01:00am 4.7 2.2 1.7 81 1.2 N 4 7 2 4 1011.5 1011.3 0.0
27/12:30am 4.2 2.0 1.1 80 1.3 NNW 2 6 1 3 1011.8 1011.6 0.0
27/12:00am 4.5 1.6 1.4 80 1.3 NNW 6 9 3 5 1012.0 1011.9 0.0
 
Date/Time
EST
Temp
°C
App
Temp
°C
Dew
Point
°C
Rel
Hum
%
Delta-T
°C
Wind Press
QNH
hPa
Press
MSL
hPa
Rain since
9am
mm
Dir  Spd
km/h
Gust
km/h
Spd
kts
Gust
kts
26/11:30pm 4.8 1.6 0.9 76 1.6 NW 7 11 4 6 1012.1 1012.0 0.0
26/11:00pm 6.4 2.1 1.3 70 2.1 WNW 13 15 7 8 1012.2 1012.1 0.0
26/10:30pm 6.8 0.9 1.5 69 2.2 WNW 22 28 12 15 1012.6 1012.4 0.0
26/10:00pm 6.4 4.2 1.1 69 2.2 NNW 2 4 1 2 1012.9 1012.7 0.0
26/09:30pm 5.9 3.3 0.7 69 2.1 NW 4 6 2 3 1012.7 1012.5 0.0
26/09:00pm 7.0 4.0 1.1 66 2.5 NW 6 9 3 5 1012.6 1012.4 0.0
26/08:30pm 6.5 3.9 0.8 67 2.3 NW 4 6 2 3 1012.3 1012.2 0.0
26/08:00pm 7.7 4.0 0.0 58 3.2 WNW 9 17 5 9 1012.2 1012.1 0.0
26/07:30pm 8.8 5.1 -0.2 53 3.7 W 9 15 5 8 1012.1 1012.0 0.0
26/07:00pm 8.9 5.6 0.4 55 3.6 W 7 11 4 6 1011.8 1011.6 0.0
26/06:30pm 9.7 7.2 4.5 70 2.4 WSW 7 9 4 5 1011.4 1011.2 0.0
26/06:00pm 10.4 4.9 1.8 55 3.8 WNW 20 30 11 16 1011.0 1010.8 0.0
26/05:30pm 10.7 4.9 2.3 56 3.7 WNW 22 32 12 17 1010.6 1010.4 0.0
26/05:00pm 11.4 4.3 1.6 51 4.3 WNW 28 43 15 23 1010.0 1009.8 0.0
26/04:30pm 11.8 5.1 1.4 49 4.6 WNW 26 39 14 21 1009.5 1009.3 0.0
26/04:00pm 11.8 5.8 1.2 48 4.7 WNW 22 33 12 18 1009.5 1009.3 0.0
26/03:30pm 12.0 7.1 1.9 50 4.5 NW 17 30 9 16 1009.2 1009.0 0.0
26/03:00pm 12.3 7.5 2.5 51 4.4 NW 17 28 9 15 1009.1 1008.9 0.0
26/02:30pm 13.6 9.9 4.2 53 4.5 NNW 13 24 7 13 1009.2 1009.0 0.0
26/02:00pm 14.0 9.2 2.6 46 5.3 NW 17 28 9 15 1009.6 1009.4 0.0
26/01:30pm 13.5 8.7 2.7 48 5.0 W 17 32 9 17 1009.7 1009.5 0.0
26/01:00pm 13.4 9.6 3.8 52 4.5 WNW 13 24 7 13 1010.0 1009.8 0.0
26/12:30pm 13.6 9.3 1.3 43 5.5 WNW 13 22 7 12 1010.3 1010.1 0.0
26/12:00pm 13.5 11.3 3.3 50 4.8 NE 4 7 2 4 1010.5 1010.3 0.0
26/11:30am 11.9 9.5 2.4 52 4.3 SW 4 11 2 6 1011.1 1010.9 0.0
26/11:00am 11.5 8.7 2.0 52 4.2 NNE 6 11 3 6 1011.5 1011.3 0.0
26/10:30am 11.4 8.8 4.4 62 3.3 NE 7 13 4 7 1011.9 1011.7 0.0
26/10:00am 10.5 7.9 3.3 61 3.3 NNE 6 11 3 6 1012.3 1012.2 0.0
26/09:30am 9.5 7.2 2.8 63 3.0 NNE 4 7 2 4 1012.8 1012.6 0.0
26/09:00am 9.1 7.6 3.1 66 2.7 CALM 0 0 0 0 1013.0 1012.8 1.0
26/08:30am 8.0 6.5 2.9 70 2.2 CALM 0 0 0 0 1012.9 1012.7 1.0
26/08:00am 7.8 6.5 4.0 77 1.7 CALM 0 0 0 0 1012.8 1012.6 1.0
26/07:30am 6.7 5.3 3.5 80 1.4 CALM 0 0 0 0 1013.1 1012.9 1.0
26/07:00am 5.5 4.1 3.3 86 1.0 CALM 0 0 0 0 1012.8 1012.6 1.0
26/06:30am 3.8 2.3 2.9 94 0.4 CALM 0 0 0 0 1012.6 1012.4 1.0
26/06:00am 3.5 1.9 2.5 93 0.4 CALM 0 4 0 2 1012.2 1012.1 0.8
26/05:30am 4.0 2.1 2.8 92 0.5 NNW 2 4 1 2 1012.1 1012.0 0.8
26/05:00am 5.0 2.9 3.8 92 0.5 NW 4 6 2 3 1012.0 1011.9 0.8
26/04:30am 5.0 2.5 3.7 91 0.6 NW 6 9 3 5 1011.9 1011.7 0.8
26/04:00am 5.6 3.0 4.1 90 0.7 NW 7 9 4 5 1011.7 1011.5 0.8
26/03:30am 7.0 4.7 5.0 87 0.9 NW 6 9 3 5 1011.6 1011.4 0.8
26/03:00am 7.2 5.5 5.7 90 0.7 NNW 4 6 2 3 1011.6 1011.4 0.8
26/02:30am 7.1 5.4 5.7 91 0.7 NNW 4 6 2 3 1011.6 1011.4 0.8
26/02:00am 7.7 5.7 6.2 90 0.7 WNW 6 7 3 4 1011.7 1011.5 0.8
26/01:30am 8.0 6.4 6.5 90 0.7 NNW 4 7 2 4 1012.0 1011.9 0.8
26/01:00am 8.0 6.8 6.5 90 0.7 N 2 6 1 3 1011.7 1011.5 0.8
26/12:30am 8.5 7.0 7.0 90 0.7 N 4 6 2 3 1011.9 1011.7 0.8
26/12:00am 9.1 7.5 8.2 94 0.5 NNE 6 11 3 6 1011.8 1011.6 0.8
 
Date/Time
EST
Temp
°C
App
Temp
°C
Dew
Point
°C
Rel
Hum
%
Delta-T
°C
Wind Press
QNH
hPa
Press
MSL
hPa
Rain since
9am
mm
Dir  Spd
km/h
Gust
km/h
Spd
kts
Gust
kts
25/11:30pm 8.7 6.9 7.8 94 0.4 ENE 7 11 4 6 1011.7 1011.5 0.8
25/11:00pm 8.6 6.9 7.4 92 0.6 E 6 9 3 5 1011.9 1011.7 0.8
25/10:30pm 9.0 7.7 7.8 92 0.6 SE 4 6 2 3 1012.0 1011.9 0.8
25/10:00pm 9.1 7.9 8.0 93 0.5 E 4 9 2 5 1011.8 1011.6 0.8
25/09:30pm 9.4 7.4 8.6 95 0.4 ESE 9 15 5 8 1011.4 1011.2 0.8
25/09:00pm 9.5 7.8 8.4 93 0.6 E 7 13 4 7 1011.4 1011.2 0.8
25/08:30pm 9.3 7.6 8.2 93 0.6 ESE 7 9 4 5 1011.4 1011.2 0.8
25/08:00pm 9.3 7.2 8.2 93 0.6 E 9 15 5 8 1011.0 1010.8 0.8
25/07:30pm 9.6 7.2 8.5 93 0.6 ESE 11 15 6 8 1010.7 1010.6 0.8
25/07:00pm 10.5 8.3 9.3 92 0.6 E 11 17 6 9 1010.3 1010.1 0.8
25/06:30pm 10.6 9.7 9.2 91 0.7 SSE 4 9 2 5 1009.8 1009.6 0.8
25/06:00pm 10.6 8.4 9.2 91 0.7 ESE 11 13 6 7 1009.1 1008.9 0.8
25/05:30pm 11.0 9.4 8.8 86 1.1 ENE 7 11 4 6 1008.9 1008.7 0.8
25/05:00pm 11.1 8.6 8.3 83 1.4 ESE 11 17 6 9 1008.5 1008.3 0.8
25/04:30pm 12.3 9.9 8.8 79 1.8 ESE 11 17 6 9 1008.2 1008.0 0.8
25/04:00pm 12.3 9.2 9.0 80 1.7 ESE 15 20 8 11 1007.9 1007.6 0.8
25/03:30pm 12.0 8.2 9.2 83 1.5 ESE 19 24 10 13 1007.5 1007.3 0.8
25/03:00pm 11.9 7.9 8.9 82 1.6 E 20 26 11 14 1007.3 1007.1 0.8
25/02:30pm 11.5 8.5 9.2 86 1.2 E 15 20 8 11 1007.2 1007.0 0.8
25/02:00pm 12.0 8.9 8.8 81 1.7 SSE 15 22 8 12 1007.4 1007.2 0.6
25/01:30pm 12.6 8.8 7.7 72 2.5 ESE 17 20 9 11 1006.5 1006.2 0.0
25/01:00pm 13.9 10.2 6.5 61 3.7 S 15 26 8 14 1006.6 1006.3 0.0
25/12:30pm 15.9 13.7 5.5 50 5.2 WNW 6 9 3 5 1006.4 1006.1 0.0
25/12:00pm 15.7 13.8 6.7 55 4.6 SSW 6 15 3 8 1006.4 1006.1 0.0

Other Formats:

Comma delimited format used in spreadsheet applications
http://www.bom.gov.au/fwo/IDN60801/IDN60801.94927.axf

JavaScript Object Notation format (JSON) in row-major order
http://www.bom.gov.au/fwo/IDN60801/IDN60801.94927.json